NCAR-RAP Real-Time Weather Data

Output produced by METARs form (26 May 2022  09:08 UTC)
found at http://weather.rap.ucar.edu/surface/
 
KSAT 260751Z 00000KT 10SM CLR 18/11 A2997 RMK AO2 SLP132 T01830111 $
KSAT 260651Z 00000KT 10SM CLR 19/11 A2998 RMK AO2 SLP134 T01890111
KSAT 260551Z 31004KT 10SM CLR 17/12 A2999 RMK AO2 SLP139 T01720122 10294 20172 403060172 51019
KSAT 260451Z 00000KT 10SM FEW250 21/09 A2998 RMK AO2 SLP134 T02110094
KSAT 260351Z 00000KT 10SM FEW250 22/10 A2997 RMK AO2 SLP131 T02220100
KSAT 260251Z 00000KT 10SM FEW250 23/10 A2993 RMK AO2 SLP120 T02280100 53025
KSAT 260151Z 04004KT 10SM FEW250 26/08 A2990 RMK AO2 SLP109 T02560078
KSAT 260051Z 35006KT 10SM FEW250 28/07 A2987 RMK AO2 SLP099 T02780072
KSAT 252351Z 03005KT 10SM FEW250 29/08 A2986 RMK AO2 SLP093 T02940078 10306 20267 55005
KSAT 252251Z 33008KT 10SM FEW250 30/08 A2985 RMK AO2 SLP093 T03000083
KSAT 252151Z 33007KT 10SM FEW045 FEW250 29/08 A2986 RMK AO2 SLP094 T02940083
KSAT 252051Z COR 29009G16KT 10SM FEW045 FEW250 29/08 A2987 RMK AO2 SLP099 T02890083 58010
KSAT 251951Z 31012G22KT 10SM FEW250 29/10 A2989 RMK AO2 SLP105 T02940100
KSAT 251851Z 29013G20KT 10SM FEW250 28/11 A2990 RMK AO2 SLP108 T02780106
KSAT 251751Z 31014KT 10SM FEW250 26/11 A2990 RMK AO2 SLP110 T02610106 10267 20172 53003
KSAT 251651Z 32012G18KT 10SM FEW040 FEW250 25/12 A2989 RMK AO2 SLP104 T02500122
KSAT 251551Z 33011KT 10SM FEW035 FEW250 23/14 A2989 RMK AO2 SLP105 T02280139
KSAT 251451Z 33011G16KT 10SM FEW025 SCT250 21/14 A2989 RMK AO2 SLP105 T02060139 51018
KSAT 251351Z 33015G21KT 10SM FEW030 SCT250 18/14 A2989 RMK AO2 SLP104 T01830144
KSAT 251251Z 33009KT 10SM FEW025 SCT120 BKN250 18/16 A2985 RMK AO2 SLP093 T01780156
KSAT 251151Z 30006KT 10SM SCT110 BKN250 17/16 A2984 RMK AO2 SLP088 60009 70049 T01720161 10183 20172 51030 $
KSAT 251051Z 24005KT 10SM SCT100 BKN240 17/16 A2983 RMK AO2 SLP086 T01720161 $
KSAT 250951Z 33007KT 10SM BKN110 OVC200 18/16 A2981 RMK AO2 LTG DSNT SE TSE33 PRESRR SLP078 OCNL LTGICCG DSNT SE-S TS MOVD SE T01780161 $
KSAT 250939Z 01005KT 10SM BKN110 OVC200 18/16 A2979 RMK AO2 LTG DSNT SE AND S TSE33 OCNL LTGICCG DSNT SE-S TS MOVD SE T01780156 $
KSAT 250851Z 35005KT 10SM TS BKN110 OVC160 17/16 A2975 RMK AO2 LTG DSNT S AND SW RAE48 SLP057 OCNL LTGICCG TS DSNT ALQDS MOVG SE P0002 60009 T01720161 56044 $
KSAT 250751Z 20012G21KT 10SM -TSRA BKN110 OVC160 18/16 A2980 RMK AO2 PK WND 06032/0713 WSHFT 0725 LTG DSNT SE SLP075 OCNL LTGICCG TS DSNT SE-SW MOVG SE P0001 T01830156 $
KSAT 250742Z COR 16012G22KT 10SM -TSRA BKN110 OVC160 18/16 A2975 RMK AO2 PK WND 06032/0713 WSHFT 0736 LTG DSNT SE AND SW PRESRR OCNL LTGICCG TS DSNT SE-SW MOVG SE P0001 T01830156 $
KSAT 250651Z 05012G22KT 10SM -TSRA FEW026 OVC090 18/16 A2978 RMK AO2 LTG DSNT ALQDS PRESFR SLPNO FRQ LTGICCG TS DSNT E-S-SW MOVG SE P0006 T01780161 $
KSAT 250603Z 02007G15KT 350V060 8SM TSRA FEW026 OVC090 18/16 A2987 RMK AO2 LTG DSNT ALQDS CONS LTGICCG TS ALQDS MOVG SE P0002 T01830161 $
KSAT 250551Z 36008G18KT 10SM -TSRA BKN016CB OVC039 18/16 A2988 RMK AO2 PK WND 32049/0452 LTG DSNT N AND E AND W SLP102 CONS LTGICCG TS ALQDS MOVG SE P0040 60040 T01780161 10300 20172 403220172 53086 $
KSAT 250502Z 33023G44KT 7SM +TSRA BKN016CB OVC039 18/16 A2983 RMK AO2 PK WND 32049/0452 LTG DSNT SW-N FRQ LTGICCG TS ALQDS MOVG SE P0000 T01830156 $
KSAT 250451Z 32034G55KT 10SM -TSRA BKN031 OVC060 22/14 A2981 RMK AO2 PK WND 32055/0448 LTG DSNT W-NE RAB51 TSB48 PRESRR SLP077 OCNL LTGICCG TS DSNT W-N MOVG SE P0000 T02220139
KSAT 250442Z 35016G38KT 10SM OVC032 24/14 A2978 RMK AO2 PK WND 35038/0440 LTG DSNT W-NE PRESRR WSHFT 40 FROPA OCNL LTGICCG DSNT W-N MOVG SE T02440144
KSAT 250351Z 15012G20KT 10SM OVC036 28/19 A2968 RMK AO2 LTG DSNT N SLP031 OCNL LTGIC DSNT NW T02780194
KSAT 250251Z 13012KT 10SM BKN047 OVC250 28/18 A2962 RMK AO2 SLP012 T02830183 58003
KSAT 250151Z 15015G21KT 10SM BKN055 OVC250 29/17 A2964 RMK AO2 PK WND 16027/0135 SLP017 T02940172
KSAT 250051Z 14015KT 10SM SCT060 OVC250 29/17 A2962 RMK AO2 SLP011 T02940172
KSAT 242351Z 14013G19KT 10SM OVC060 30/17 A2963 RMK AO2 SLP015 T03000172 10322 20272 56023
KSAT 242251Z 17011KT 10SM OVC055 30/17 A2965 RMK AO2 SLP023 T03000167
KSAT 242151Z 16011KT 10SM BKN055 BKN250 31/16 A2967 RMK AO2 SLP027 T03060161
KSAT 242051Z 17006G18KT 10SM FEW045 FEW250 31/17 A2970 RMK AO2 SLP037 T03060167 58018
KSAT 241951Z 14014G21KT 10SM SCT039 SCT250 31/18 A2973 RMK AO2 SLP048 T03060178
KSAT 241851Z COR 14013KT 10SM SCT039 OVC250 29/17 A2975 RMK AO2 PK WND 14026/1841 SLPNO T02940172 $
KSAT 241751Z 14011G21KT 10SM FEW040 OVC250 27/16 A2975 RMK AO2 SLP057 T02720161 10278 20211 58013
KSAT 241651Z 15010KT 10SM FEW035 OVC250 27/17 A2976 RMK AO2 SLP061 T02670172
KSAT 241551Z 13010KT 10SM FEW025 OVC250 26/17 A2979 RMK AO2 SLP070 T02560167
KSAT 241451Z 14010G16KT 10SM FEW022 OVC250 25/18 A2979 RMK AO2 SLP070 T02500178 50013
KSAT 241351Z 11003KT 10SM FEW015 OVC250 23/18 A2980 RMK AO2 SLP075 T02330183
KSAT 241251Z 00000KT 10SM FEW012 BKN250 22/19 A2977 RMK AO2 SLP065 T02220194
KSAT 241151Z 12003KT 10SM FEW010 SCT250 21/18 A2975 RMK AO2 SLP058 70001 T02110178 10233 20211 56024
KSAT 241051Z COR 13008KT 10SM FEW010 FEW250 22/21 A2977 RMK AO2 SLP063 T02220206
KSAT 240951Z 07007KT 10SM FEW010 SCT070 23/21 A2975 RMK AO2 SLP057 T02280206